sensor_id;sensor_type;location;lat;lon;timestamp;P1;durP1;ratioP1;P2;durP2;ratioP2
1957;SDS011;979;51.076;13.748;2023-03-14T00:28:41;16.33;;;15.73;;
1957;SDS011;979;51.076;13.748;2023-03-14T00:31:33;17.00;;;16.30;;
1957;SDS011;979;51.076;13.748;2023-03-14T00:34:11;16.90;;;16.30;;
1957;SDS011;979;51.076;13.748;2023-03-14T00:36:56;16.60;;;16.00;;
1957;SDS011;979;51.076;13.748;2023-03-14T00:39:50;16.93;;;16.40;;
1957;SDS011;979;51.076;13.748;2023-03-14T00:42:48;16.30;;;15.70;;
1957;SDS011;979;51.076;13.748;2023-03-14T00:45:38;17.23;;;16.63;;
1957;SDS011;979;51.076;13.748;2023-03-14T00:48:33;17.40;;;16.60;;
1957;SDS011;979;51.076;13.748;2023-03-14T00:51:20;17.00;;;16.30;;
1957;SDS011;979;51.076;13.748;2023-03-14T00:53:58;17.60;;;16.90;;
1957;SDS011;979;51.076;13.748;2023-03-14T00:57:02;17.60;;;16.90;;
1957;SDS011;979;51.076;13.748;2023-03-14T00:59:37;16.60;;;16.10;;
1957;SDS011;979;51.076;13.748;2023-03-14T01:02:22;19.10;;;18.13;;
1957;SDS011;979;51.076;13.748;2023-03-14T01:05:07;18.60;;;17.80;;
1957;SDS011;979;51.076;13.748;2023-03-14T01:08:01;18.13;;;17.43;;
1957;SDS011;979;51.076;13.748;2023-03-14T01:10:34;18.10;;;17.40;;
1957;SDS011;979;51.076;13.748;2023-03-14T01:13:33;19.13;;;18.13;;
1957;SDS011;979;51.076;13.748;2023-03-14T01:16:31;18.80;;;17.70;;
1957;SDS011;979;51.076;13.748;2023-03-14T01:22:08;19.20;;;18.40;;
1957;SDS011;979;51.076;13.748;2023-03-14T01:25:13;18.90;;;18.00;;
1957;SDS011;979;51.076;13.748;2023-03-14T01:27:52;18.23;;;17.43;;
1957;SDS011;979;51.076;13.748;2023-03-14T01:30:34;18.10;;;17.40;;
1957;SDS011;979;51.076;13.748;2023-03-14T01:33:12;17.80;;;17.10;;
1957;SDS011;979;51.076;13.748;2023-03-14T01:39:10;19.03;;;18.23;;
1957;SDS011;979;51.076;13.748;2023-03-14T01:41:47;18.27;;;17.50;;
1957;SDS011;979;51.076;13.748;2023-03-14T01:44:47;18.17;;;17.33;;
1957;SDS011;979;51.076;13.748;2023-03-14T01:47:36;18.00;;;17.30;;
1957;SDS011;979;51.076;13.748;2023-03-14T01:50:20;18.33;;;17.60;;
1957;SDS011;979;51.076;13.748;2023-03-14T01:53:05;18.30;;;17.50;;
1957;SDS011;979;51.076;13.748;2023-03-14T01:56:03;19.33;;;18.27;;
1957;SDS011;979;51.076;13.748;2023-03-14T01:58:45;19.07;;;18.17;;
1957;SDS011;979;51.076;13.748;2023-03-14T02:01:37;18.07;;;17.37;;
1957;SDS011;979;51.076;13.748;2023-03-14T02:04:37;19.27;;;18.57;;
1957;SDS011;979;51.076;13.748;2023-03-14T02:07:22;19.40;;;18.60;;
1957;SDS011;979;51.076;13.748;2023-03-14T02:10:40;19.37;;;18.50;;
1957;SDS011;979;51.076;13.748;2023-03-14T02:13:50;18.57;;;17.67;;
1957;SDS011;979;51.076;13.748;2023-03-14T02:16:37;19.73;;;18.93;;
1957;SDS011;979;51.076;13.748;2023-03-14T02:19:36;19.10;;;18.27;;
1957;SDS011;979;51.076;13.748;2023-03-14T02:22:37;20.57;;;19.57;;
1957;SDS011;979;51.076;13.748;2023-03-14T02:25:17;18.70;;;18.00;;
1957;SDS011;979;51.076;13.748;2023-03-14T02:28:09;19.30;;;18.37;;
1957;SDS011;979;51.076;13.748;2023-03-14T02:30:49;18.70;;;17.90;;
1957;SDS011;979;51.076;13.748;2023-03-14T02:33:43;18.80;;;18.00;;
1957;SDS011;979;51.076;13.748;2023-03-14T02:36:28;19.60;;;18.70;;
1957;SDS011;979;51.076;13.748;2023-03-14T02:39:26;18.83;;;18.03;;
1957;SDS011;979;51.076;13.748;2023-03-14T02:42:13;18.47;;;17.67;;
1957;SDS011;979;51.076;13.748;2023-03-14T02:44:55;18.27;;;17.47;;
1957;SDS011;979;51.076;13.748;2023-03-14T02:47:54;18.10;;;17.20;;
1957;SDS011;979;51.076;13.748;2023-03-14T02:50:45;18.27;;;17.33;;
1957;SDS011;979;51.076;13.748;2023-03-14T02:53:39;18.07;;;17.40;;
1957;SDS011;979;51.076;13.748;2023-03-14T02:56:28;17.87;;;17.17;;
1957;SDS011;979;51.076;13.748;2023-03-14T02:59:11;17.73;;;17.13;;
1957;SDS011;979;51.076;13.748;2023-03-14T03:02:10;18.37;;;17.53;;
1957;SDS011;979;51.076;13.748;2023-03-14T03:05:05;17.40;;;16.77;;
1957;SDS011;979;51.076;13.748;2023-03-14T03:07:49;16.93;;;16.33;;
1957;SDS011;979;51.076;13.748;2023-03-14T03:10:45;17.07;;;16.37;;
1957;SDS011;979;51.076;13.748;2023-03-14T03:13:26;16.60;;;16.00;;
1957;SDS011;979;51.076;13.748;2023-03-14T03:16:17;16.03;;;15.50;;
1957;SDS011;979;51.076;13.748;2023-03-14T03:19:10;14.97;;;14.57;;
1957;SDS011;979;51.076;13.748;2023-03-14T03:21:47;15.23;;;14.83;;
1957;SDS011;979;51.076;13.748;2023-03-14T03:24:31;16.10;;;15.60;;
1957;SDS011;979;51.076;13.748;2023-03-14T03:27:43;15.50;;;15.00;;
1957;SDS011;979;51.076;13.748;2023-03-14T03:30:28;15.30;;;14.80;;
1957;SDS011;979;51.076;13.748;2023-03-14T03:33:03;15.47;;;14.97;;
1957;SDS011;979;51.076;13.748;2023-03-14T03:35:59;16.20;;;15.60;;
1957;SDS011;979;51.076;13.748;2023-03-14T03:38:46;15.93;;;15.43;;
1957;SDS011;979;51.076;13.748;2023-03-14T03:41:40;15.90;;;15.30;;
1957;SDS011;979;51.076;13.748;2023-03-14T03:44:38;15.50;;;15.10;;
1957;SDS011;979;51.076;13.748;2023-03-14T03:50:44;15.70;;;15.30;;
1957;SDS011;979;51.076;13.748;2023-03-14T03:53:33;15.70;;;15.20;;
1957;SDS011;979;51.076;13.748;2023-03-14T03:56:46;14.03;;;13.73;;
1957;SDS011;979;51.076;13.748;2023-03-14T03:59:26;14.63;;;14.23;;
1957;SDS011;979;51.076;13.748;2023-03-14T04:02:23;14.63;;;14.33;;
1957;SDS011;979;51.076;13.748;2023-03-14T04:05:05;15.27;;;14.87;;
1957;SDS011;979;51.076;13.748;2023-03-14T04:08:22;16.33;;;15.73;;
1957;SDS011;979;51.076;13.748;2023-03-14T04:11:24;15.63;;;15.20;;
1957;SDS011;979;51.076;13.748;2023-03-14T04:14:52;15.20;;;14.80;;
1957;SDS011;979;51.076;13.748;2023-03-14T04:17:58;15.10;;;14.70;;
1957;SDS011;979;51.076;13.748;2023-03-14T04:20:50;15.47;;;15.07;;
1957;SDS011;979;51.076;13.748;2023-03-14T04:23:51;15.10;;;14.70;;
1957;SDS011;979;51.076;13.748;2023-03-14T04:26:36;15.20;;;14.70;;
1957;SDS011;979;51.076;13.748;2023-03-14T04:29:49;14.80;;;14.30;;
1957;SDS011;979;51.076;13.748;2023-03-14T04:32:57;15.40;;;14.90;;
1957;SDS011;979;51.076;13.748;2023-03-14T04:35:33;13.63;;;13.23;;
1957;SDS011;979;51.076;13.748;2023-03-14T04:38:14;14.70;;;14.20;;
1957;SDS011;979;51.076;13.748;2023-03-14T04:40:55;15.07;;;14.67;;
1957;SDS011;979;51.076;13.748;2023-03-14T04:43:35;14.83;;;14.43;;
1957;SDS011;979;51.076;13.748;2023-03-14T04:46:14;14.43;;;14.03;;
1957;SDS011;979;51.076;13.748;2023-03-14T04:49:12;15.20;;;14.60;;
1957;SDS011;979;51.076;13.748;2023-03-14T04:52:00;17.37;;;16.37;;
1957;SDS011;979;51.076;13.748;2023-03-14T04:54:57;14.70;;;14.30;;
1957;SDS011;979;51.076;13.748;2023-03-14T04:57:49;14.93;;;14.53;;
1957;SDS011;979;51.076;13.748;2023-03-14T05:00:40;15.03;;;14.47;;
1957;SDS011;979;51.076;13.748;2023-03-14T05:03:49;15.70;;;15.03;;
1957;SDS011;979;51.076;13.748;2023-03-14T05:06:54;14.70;;;14.10;;
1957;SDS011;979;51.076;13.748;2023-03-14T05:09:52;14.80;;;14.20;;
1957;SDS011;979;51.076;13.748;2023-03-14T05:13:11;14.70;;;14.10;;
1957;SDS011;979;51.076;13.748;2023-03-14T05:16:20;14.60;;;14.20;;
1957;SDS011;979;51.076;13.748;2023-03-14T05:19:11;15.37;;;14.97;;
1957;SDS011;979;51.076;13.748;2023-03-14T05:22:33;15.80;;;15.30;;
1957;SDS011;979;51.076;13.748;2023-03-14T05:25:39;15.00;;;14.37;;
1957;SDS011;979;51.076;13.748;2023-03-14T05:28:39;16.20;;;15.57;;
1957;SDS011;979;51.076;13.748;2023-03-14T05:31:42;15.30;;;14.70;;
1957;SDS011;979;51.076;13.748;2023-03-14T05:34:43;15.40;;;14.80;;
1957;SDS011;979;51.076;13.748;2023-03-14T05:37:42;15.30;;;14.90;;
1957;SDS011;979;51.076;13.748;2023-03-14T05:40:56;14.30;;;13.90;;
1957;SDS011;979;51.076;13.748;2023-03-14T05:47:38;15.57;;;14.70;;
1957;SDS011;979;51.076;13.748;2023-03-14T05:53:43;16.47;;;15.77;;
1957;SDS011;979;51.076;13.748;2023-03-14T05:57:17;14.63;;;14.23;;
1957;SDS011;979;51.076;13.748;2023-03-14T06:00:47;15.00;;;14.40;;
1957;SDS011;979;51.076;13.748;2023-03-14T06:04:06;14.80;;;14.30;;
1957;SDS011;979;51.076;13.748;2023-03-14T06:07:24;14.97;;;14.37;;
1957;SDS011;979;51.076;13.748;2023-03-14T06:10:08;14.40;;;13.80;;
1957;SDS011;979;51.076;13.748;2023-03-14T06:12:44;14.90;;;14.30;;
1957;SDS011;979;51.076;13.748;2023-03-14T06:15:21;15.00;;;14.23;;
1957;SDS011;979;51.076;13.748;2023-03-14T06:18:06;14.43;;;13.93;;
1957;SDS011;979;51.076;13.748;2023-03-14T06:21:11;15.80;;;15.00;;
1957;SDS011;979;51.076;13.748;2023-03-14T06:24:06;15.77;;;14.70;;
1957;SDS011;979;51.076;13.748;2023-03-14T06:26:49;14.97;;;14.47;;
1957;SDS011;979;51.076;13.748;2023-03-14T06:29:21;15.80;;;15.00;;
1957;SDS011;979;51.076;13.748;2023-03-14T06:31:56;15.70;;;15.00;;
1957;SDS011;979;51.076;13.748;2023-03-14T06:34:32;15.37;;;14.87;;
1957;SDS011;979;51.076;13.748;2023-03-14T06:37:19;17.73;;;15.83;;
1957;SDS011;979;51.076;13.748;2023-03-14T06:39:57;15.90;;;15.30;;
1957;SDS011;979;51.076;13.748;2023-03-14T06:42:49;16.43;;;15.80;;
1957;SDS011;979;51.076;13.748;2023-03-14T06:45:25;17.67;;;16.63;;
1957;SDS011;979;51.076;13.748;2023-03-14T07:55:41;16.13;;;15.53;;
1957;SDS011;979;51.076;13.748;2023-03-14T07:58:37;15.93;;;15.23;;
1957;SDS011;979;51.076;13.748;2023-03-14T08:01:39;16.37;;;15.40;;
1957;SDS011;979;51.076;13.748;2023-03-14T08:04:11;15.40;;;14.90;;
1957;SDS011;979;51.076;13.748;2023-03-14T08:07:15;15.40;;;14.40;;
1957;SDS011;979;51.076;13.748;2023-03-14T08:10:15;14.93;;;14.43;;
1957;SDS011;979;51.076;13.748;2023-03-14T08:13:12;14.37;;;13.97;;
1957;SDS011;979;51.076;13.748;2023-03-14T08:16:08;15.30;;;14.70;;
1957;SDS011;979;51.076;13.748;2023-03-14T08:19:10;14.43;;;13.97;;
1957;SDS011;979;51.076;13.748;2023-03-14T08:21:38;18.07;;;16.50;;
1957;SDS011;979;51.076;13.748;2023-03-14T08:24:14;15.27;;;14.67;;
1957;SDS011;979;51.076;13.748;2023-03-14T08:26:45;15.40;;;14.80;;
1957;SDS011;979;51.076;13.748;2023-03-14T08:29:44;17.00;;;16.30;;
1957;SDS011;979;51.076;13.748;2023-03-14T08:32:42;16.10;;;15.50;;
1957;SDS011;979;51.076;13.748;2023-03-14T08:59:50;15.50;;;15.00;;
1957;SDS011;979;51.076;13.748;2023-03-14T09:02:19;15.90;;;15.40;;
1957;SDS011;979;51.076;13.748;2023-03-14T09:04:49;16.67;;;16.07;;
1957;SDS011;979;51.076;13.748;2023-03-14T09:07:18;16.73;;;16.13;;
1957;SDS011;979;51.076;13.748;2023-03-14T09:09:46;16.37;;;15.80;;
1957;SDS011;979;51.076;13.748;2023-03-14T09:12:15;15.47;;;15.07;;
1957;SDS011;979;51.076;13.748;2023-03-14T09:14:44;16.60;;;16.10;;
1957;SDS011;979;51.076;13.748;2023-03-14T09:17:15;16.30;;;15.80;;
1957;SDS011;979;51.076;13.748;2023-03-14T09:19:44;15.13;;;14.73;;
1957;SDS011;979;51.076;13.748;2023-03-14T09:22:12;15.83;;;15.33;;
1957;SDS011;979;51.076;13.748;2023-03-14T09:24:40;16.20;;;15.70;;
1957;SDS011;979;51.076;13.748;2023-03-14T09:27:09;16.40;;;15.90;;
1957;SDS011;979;51.076;13.748;2023-03-14T09:29:38;16.03;;;15.60;;
1957;SDS011;979;51.076;13.748;2023-03-14T09:32:06;16.10;;;15.50;;
1957;SDS011;979;51.076;13.748;2023-03-14T09:34:36;16.90;;;16.40;;
1957;SDS011;979;51.076;13.748;2023-03-14T09:37:05;16.17;;;15.50;;
1957;SDS011;979;51.076;13.748;2023-03-14T09:39:33;15.93;;;15.43;;
1957;SDS011;979;51.076;13.748;2023-03-14T09:42:02;16.07;;;15.47;;
1957;SDS011;979;51.076;13.748;2023-03-14T09:44:34;16.40;;;15.80;;
1957;SDS011;979;51.076;13.748;2023-03-14T09:47:07;15.83;;;15.43;;
1957;SDS011;979;51.076;13.748;2023-03-14T09:49:42;15.90;;;15.50;;
1957;SDS011;979;51.076;13.748;2023-03-14T09:52:11;16.10;;;15.50;;
1957;SDS011;979;51.076;13.748;2023-03-14T09:54:42;16.40;;;15.90;;
1957;SDS011;979;51.076;13.748;2023-03-14T09:57:15;16.40;;;15.80;;
1957;SDS011;979;51.076;13.748;2023-03-14T09:59:46;15.17;;;14.77;;
1957;SDS011;979;51.076;13.748;2023-03-14T10:02:18;16.07;;;14.83;;
1957;SDS011;979;51.076;13.748;2023-03-14T10:04:49;15.60;;;15.10;;
1957;SDS011;979;51.076;13.748;2023-03-14T10:07:21;15.43;;;14.93;;
1957;SDS011;979;51.076;13.748;2023-03-14T10:09:57;14.97;;;14.37;;
1957;SDS011;979;51.076;13.748;2023-03-14T10:12:36;16.07;;;15.50;;
1957;SDS011;979;51.076;13.748;2023-03-14T10:15:06;16.00;;;15.50;;
1957;SDS011;979;51.076;13.748;2023-03-14T10:17:38;15.83;;;15.23;;
1957;SDS011;979;51.076;13.748;2023-03-14T10:20:17;15.50;;;15.00;;
1957;SDS011;979;51.076;13.748;2023-03-14T10:23:00;15.70;;;15.20;;
1957;SDS011;979;51.076;13.748;2023-03-14T10:25:31;15.63;;;14.93;;
1957;SDS011;979;51.076;13.748;2023-03-14T10:28:02;15.20;;;14.80;;
1957;SDS011;979;51.076;13.748;2023-03-14T10:30:38;15.03;;;14.63;;
1957;SDS011;979;51.076;13.748;2023-03-14T10:33:11;14.40;;;14.10;;
1957;SDS011;979;51.076;13.748;2023-03-14T10:35:57;14.80;;;14.50;;
1957;SDS011;979;51.076;13.748;2023-03-14T10:38:31;15.90;;;15.40;;
1957;SDS011;979;51.076;13.748;2023-03-14T10:41:01;15.60;;;15.20;;
1957;SDS011;979;51.076;13.748;2023-03-14T10:43:42;15.63;;;15.23;;
1957;SDS011;979;51.076;13.748;2023-03-14T10:46:13;16.10;;;15.60;;
1957;SDS011;979;51.076;13.748;2023-03-14T10:49:04;16.30;;;15.70;;
1957;SDS011;979;51.076;13.748;2023-03-14T11:34:54;16.60;;;16.10;;
1957;SDS011;979;51.076;13.748;2023-03-14T11:37:29;15.67;;;15.27;;
1957;SDS011;979;51.076;13.748;2023-03-14T11:40:18;16.43;;;15.93;;
1957;SDS011;979;51.076;13.748;2023-03-14T11:47:15;16.43;;;15.93;;
1957;SDS011;979;51.076;13.748;2023-03-14T15:00:34;15.30;;;14.90;;
1957;SDS011;979;51.076;13.748;2023-03-14T15:03:18;15.73;;;15.33;;
1957;SDS011;979;51.076;13.748;2023-03-14T15:06:05;15.77;;;15.27;;
1957;SDS011;979;51.076;13.748;2023-03-14T15:08:38;15.80;;;15.40;;
1957;SDS011;979;51.076;13.748;2023-03-14T15:11:26;15.83;;;15.40;;
1957;SDS011;979;51.076;13.748;2023-03-14T15:13:58;16.00;;;15.60;;
1957;SDS011;979;51.076;13.748;2023-03-14T15:16:36;16.53;;;16.03;;
1957;SDS011;979;51.076;13.748;2023-03-14T15:19:23;16.17;;;15.67;;
1957;SDS011;979;51.076;13.748;2023-03-14T15:22:32;16.27;;;15.70;;
1957;SDS011;979;51.076;13.748;2023-03-14T15:25:22;15.30;;;14.90;;
1957;SDS011;979;51.076;13.748;2023-03-14T15:28:31;16.00;;;15.60;;
1957;SDS011;979;51.076;13.748;2023-03-14T15:31:22;16.00;;;15.50;;
1957;SDS011;979;51.076;13.748;2023-03-14T15:34:02;15.57;;;15.17;;
1957;SDS011;979;51.076;13.748;2023-03-14T15:36:43;16.50;;;16.00;;
1957;SDS011;979;51.076;13.748;2023-03-14T15:39:27;15.60;;;15.20;;
1957;SDS011;979;51.076;13.748;2023-03-14T15:42:07;15.50;;;15.10;;
1957;SDS011;979;51.076;13.748;2023-03-14T15:44:38;15.00;;;14.60;;
1957;SDS011;979;51.076;13.748;2023-03-14T15:47:19;14.50;;;14.20;;
1957;SDS011;979;51.076;13.748;2023-03-14T15:50:03;15.10;;;14.70;;
1957;SDS011;979;51.076;13.748;2023-03-14T15:52:55;15.40;;;14.70;;
1957;SDS011;979;51.076;13.748;2023-03-14T15:55:41;14.67;;;14.27;;
1957;SDS011;979;51.076;13.748;2023-03-14T15:58:14;15.00;;;14.60;;
1957;SDS011;979;51.076;13.748;2023-03-14T16:01:02;15.53;;;14.93;;
1957;SDS011;979;51.076;13.748;2023-03-14T16:03:35;14.70;;;14.30;;
1957;SDS011;979;51.076;13.748;2023-03-14T16:06:31;15.00;;;14.60;;
1957;SDS011;979;51.076;13.748;2023-03-14T16:09:02;14.67;;;14.20;;
1957;SDS011;979;51.076;13.748;2023-03-14T16:11:36;14.77;;;14.37;;
1957;SDS011;979;51.076;13.748;2023-03-14T16:14:04;15.57;;;15.07;;
1957;SDS011;979;51.076;13.748;2023-03-14T16:17:07;14.93;;;14.53;;
1957;SDS011;979;51.076;13.748;2023-03-14T16:19:55;13.50;;;13.10;;
1957;SDS011;979;51.076;13.748;2023-03-14T16:23:20;14.13;;;13.83;;
1957;SDS011;979;51.076;13.748;2023-03-14T16:26:15;13.70;;;13.40;;
1957;SDS011;979;51.076;13.748;2023-03-14T16:28:56;14.10;;;13.80;;
1957;SDS011;979;51.076;13.748;2023-03-14T16:32:04;17.60;;;17.10;;
1957;SDS011;979;51.076;13.748;2023-03-14T16:37:51;21.40;;;20.60;;
1957;SDS011;979;51.076;13.748;2023-03-14T16:40:38;23.63;;;22.77;;
1957;SDS011;979;51.076;13.748;2023-03-14T16:43:14;24.40;;;23.50;;
1957;SDS011;979;51.076;13.748;2023-03-14T16:45:50;33.47;;;32.00;;
1957;SDS011;979;51.076;13.748;2023-03-14T16:48:43;37.83;;;36.13;;
1957;SDS011;979;51.076;13.748;2023-03-14T16:51:18;38.10;;;36.40;;
1957;SDS011;979;51.076;13.748;2023-03-14T16:53:57;38.53;;;36.83;;
1957;SDS011;979;51.076;13.748;2023-03-14T16:56:41;38.60;;;36.83;;
1957;SDS011;979;51.076;13.748;2023-03-14T16:59:14;37.10;;;35.40;;
1957;SDS011;979;51.076;13.748;2023-03-14T17:01:43;41.70;;;40.30;;
1957;SDS011;979;51.076;13.748;2023-03-14T17:04:14;46.70;;;45.00;;
1957;SDS011;979;51.076;13.748;2023-03-14T17:06:44;170.67;;;166.00;;
1957;SDS011;979;51.076;13.748;2023-03-14T17:09:13;167.10;;;162.60;;
1957;SDS011;979;51.076;13.748;2023-03-14T17:11:51;142.60;;;138.80;;
1957;SDS011;979;51.076;13.748;2023-03-14T17:14:21;116.80;;;113.70;;
1957;SDS011;979;51.076;13.748;2023-03-14T17:16:56;64.40;;;62.70;;
1957;SDS011;979;51.076;13.748;2023-03-14T17:19:27;52.07;;;50.67;;
1957;SDS011;979;51.076;13.748;2023-03-14T17:22:00;75.50;;;73.50;;
1957;SDS011;979;51.076;13.748;2023-03-14T17:24:48;64.87;;;63.07;;
1957;SDS011;979;51.076;13.748;2023-03-14T17:27:24;69.47;;;67.67;;
1957;SDS011;979;51.076;13.748;2023-03-14T17:30:07;72.70;;;70.23;;
1957;SDS011;979;51.076;13.748;2023-03-14T17:32:39;67.97;;;66.17;;
1957;SDS011;979;51.076;13.748;2023-03-14T17:35:25;44.10;;;42.90;;
1957;SDS011;979;51.076;13.748;2023-03-14T17:38:11;44.37;;;42.97;;
1957;SDS011;979;51.076;13.748;2023-03-14T17:40:45;51.03;;;49.73;;
1957;SDS011;979;51.076;13.748;2023-03-14T17:43:25;39.77;;;38.77;;
1957;SDS011;979;51.076;13.748;2023-03-14T17:46:00;1.10;;;1.00;;
1957;SDS011;979;51.076;13.748;2023-03-14T17:48:40;2.77;;;0.93;;
1957;SDS011;979;51.076;13.748;2023-03-14T17:51:22;1.03;;;0.93;;
1957;SDS011;979;51.076;13.748;2023-03-14T17:53:53;0.90;;;0.83;;
1957;SDS011;979;51.076;13.748;2023-03-14T17:56:31;0.90;;;0.90;;
1957;SDS011;979;51.076;13.748;2023-03-14T17:59:12;1.73;;;1.37;;
1957;SDS011;979;51.076;13.748;2023-03-14T18:01:45;3.87;;;1.33;;
1957;SDS011;979;51.076;13.748;2023-03-14T18:04:34;1.33;;;0.80;;
1957;SDS011;979;51.076;13.748;2023-03-14T18:07:34;0.87;;;0.87;;
1957;SDS011;979;51.076;13.748;2023-03-14T18:19:14;1.80;;;1.53;;
1957;SDS011;979;51.076;13.748;2023-03-14T18:21:43;1.77;;;1.67;;
1957;SDS011;979;51.076;13.748;2023-03-14T18:24:36;0.93;;;0.93;;
1957;SDS011;979;51.076;13.748;2023-03-14T18:27:08;0.80;;;0.80;;
1957;SDS011;979;51.076;13.748;2023-03-14T18:29:43;5.37;;;1.73;;
1957;SDS011;979;51.076;13.748;2023-03-14T18:32:20;2.23;;;1.40;;
1957;SDS011;979;51.076;13.748;2023-03-14T18:35:01;1.63;;;1.13;;
1957;SDS011;979;51.076;13.748;2023-03-14T18:37:52;2.23;;;1.50;;
1957;SDS011;979;51.076;13.748;2023-03-14T18:40:29;2.10;;;1.30;;
1957;SDS011;979;51.076;13.748;2023-03-14T18:43:06;2.03;;;1.87;;
1957;SDS011;979;51.076;13.748;2023-03-14T18:45:43;1.27;;;1.17;;
1957;SDS011;979;51.076;13.748;2023-03-14T18:48:25;2.77;;;1.30;;
1957;SDS011;979;51.076;13.748;2023-03-14T18:51:15;1.17;;;0.90;;
1957;SDS011;979;51.076;13.748;2023-03-14T18:53:52;1.13;;;1.10;;
1957;SDS011;979;51.076;13.748;2023-03-14T18:56:39;1.33;;;1.23;;
1957;SDS011;979;51.076;13.748;2023-03-14T18:59:54;3.93;;;1.47;;
1957;SDS011;979;51.076;13.748;2023-03-14T19:07:16;0.87;;;0.80;;
1957;SDS011;979;51.076;13.748;2023-03-14T19:11:11;0.93;;;0.90;;
1957;SDS011;979;51.076;13.748;2023-03-14T19:15:09;4.00;;;1.27;;
1957;SDS011;979;51.076;13.748;2023-03-14T19:17:42;4.50;;;1.30;;
1957;SDS011;979;51.076;13.748;2023-03-14T19:20:18;1.70;;;1.50;;
1957;SDS011;979;51.076;13.748;2023-03-14T19:26:15;1.30;;;1.20;;
1957;SDS011;979;51.076;13.748;2023-03-14T19:28:50;1.23;;;1.13;;
1957;SDS011;979;51.076;13.748;2023-03-14T19:31:21;3.27;;;1.63;;
1957;SDS011;979;51.076;13.748;2023-03-14T19:33:57;4.10;;;2.40;;
1957;SDS011;979;51.076;13.748;2023-03-14T19:41:14;3.90;;;1.43;;
1957;SDS011;979;51.076;13.748;2023-03-14T19:43:58;1.80;;;1.60;;
1957;SDS011;979;51.076;13.748;2023-03-14T19:46:31;6.70;;;2.40;;
1957;SDS011;979;51.076;13.748;2023-03-14T19:49:26;3.53;;;1.60;;
1957;SDS011;979;51.076;13.748;2023-03-14T19:52:01;1.57;;;1.47;;
1957;SDS011;979;51.076;13.748;2023-03-14T19:54:45;2.10;;;1.60;;
1957;SDS011;979;51.076;13.748;2023-03-14T19:57:34;3.17;;;1.90;;
1957;SDS011;979;51.076;13.748;2023-03-14T20:00:08;5.13;;;2.23;;
1957;SDS011;979;51.076;13.748;2023-03-14T20:02:48;6.70;;;2.10;;
1957;SDS011;979;51.076;13.748;2023-03-14T20:05:23;4.40;;;1.87;;
1957;SDS011;979;51.076;13.748;2023-03-14T20:07:58;4.60;;;1.93;;
1957;SDS011;979;51.076;13.748;2023-03-14T20:10:31;5.80;;;1.90;;
1957;SDS011;979;51.076;13.748;2023-03-14T20:13:15;3.27;;;1.87;;
1957;SDS011;979;51.076;13.748;2023-03-14T20:16:11;2.00;;;1.90;;
1957;SDS011;979;51.076;13.748;2023-03-14T20:18:50;3.47;;;1.80;;
1957;SDS011;979;51.076;13.748;2023-03-14T20:21:43;8.33;;;1.70;;
1957;SDS011;979;51.076;13.748;2023-03-14T20:24:14;5.47;;;2.10;;
1957;SDS011;979;51.076;13.748;2023-03-14T20:26:51;1.77;;;1.13;;
1957;SDS011;979;51.076;13.748;2023-03-14T20:29:26;3.87;;;1.70;;
1957;SDS011;979;51.076;13.748;2023-03-14T20:32:20;4.40;;;1.70;;
1957;SDS011;979;51.076;13.748;2023-03-14T20:35:03;3.90;;;1.80;;
1957;SDS011;979;51.076;13.748;2023-03-14T20:37:36;4.73;;;1.53;;
1957;SDS011;979;51.076;13.748;2023-03-14T20:40:06;5.83;;;1.83;;
1957;SDS011;979;51.076;13.748;2023-03-14T20:42:40;1.47;;;1.37;;
1957;SDS011;979;51.076;13.748;2023-03-14T20:45:11;5.33;;;1.60;;
1957;SDS011;979;51.076;13.748;2023-03-14T20:47:47;6.53;;;1.67;;
1957;SDS011;979;51.076;13.748;2023-03-14T20:50:16;7.27;;;1.57;;
1957;SDS011;979;51.076;13.748;2023-03-14T20:52:48;9.50;;;1.73;;
1957;SDS011;979;51.076;13.748;2023-03-14T20:55:33;5.07;;;1.80;;
1957;SDS011;979;51.076;13.748;2023-03-14T20:58:12;8.33;;;2.40;;
1957;SDS011;979;51.076;13.748;2023-03-14T21:00:46;3.07;;;1.40;;
1957;SDS011;979;51.076;13.748;2023-03-14T21:03:17;1.90;;;1.63;;
1957;SDS011;979;51.076;13.748;2023-03-14T21:06:07;5.00;;;1.60;;
1957;SDS011;979;51.076;13.748;2023-03-14T21:08:44;4.50;;;1.90;;
1957;SDS011;979;51.076;13.748;2023-03-14T21:11:40;5.17;;;2.23;;
1957;SDS011;979;51.076;13.748;2023-03-14T21:14:14;1.67;;;1.40;;
1957;SDS011;979;51.076;13.748;2023-03-14T21:16:50;1.60;;;1.50;;
1957;SDS011;979;51.076;13.748;2023-03-14T21:19:24;5.07;;;1.63;;
1957;SDS011;979;51.076;13.748;2023-03-14T21:22:04;5.97;;;1.63;;
1957;SDS011;979;51.076;13.748;2023-03-14T21:24:43;1.40;;;1.27;;
1957;SDS011;979;51.076;13.748;2023-03-14T21:27:15;2.20;;;1.67;;
1957;SDS011;979;51.076;13.748;2023-03-14T21:29:44;4.80;;;1.27;;
1957;SDS011;979;51.076;13.748;2023-03-14T21:32:28;3.27;;;2.00;;
1957;SDS011;979;51.076;13.748;2023-03-14T21:35:00;4.90;;;1.70;;
1957;SDS011;979;51.076;13.748;2023-03-14T21:37:36;10.87;;;1.43;;
1957;SDS011;979;51.076;13.748;2023-03-14T21:40:56;3.87;;;2.20;;
1957;SDS011;979;51.076;13.748;2023-03-14T21:43:50;4.10;;;1.90;;
1957;SDS011;979;51.076;13.748;2023-03-14T21:46:40;4.03;;;1.40;;
1957;SDS011;979;51.076;13.748;2023-03-14T21:49:22;4.13;;;1.20;;
1957;SDS011;979;51.076;13.748;2023-03-14T21:52:12;7.77;;;2.20;;
1957;SDS011;979;51.076;13.748;2023-03-14T21:54:46;2.07;;;1.47;;
1957;SDS011;979;51.076;13.748;2023-03-14T21:57:25;2.63;;;1.83;;
1957;SDS011;979;51.076;13.748;2023-03-14T22:00:02;5.27;;;2.07;;
1957;SDS011;979;51.076;13.748;2023-03-14T22:02:36;6.90;;;1.80;;
1957;SDS011;979;51.076;13.748;2023-03-14T22:05:35;1.93;;;1.37;;
1957;SDS011;979;51.076;13.748;2023-03-14T22:08:04;5.20;;;1.30;;
1957;SDS011;979;51.076;13.748;2023-03-14T22:10:33;5.93;;;1.83;;
1957;SDS011;979;51.076;13.748;2023-03-14T22:13:12;3.80;;;1.33;;
1957;SDS011;979;51.076;13.748;2023-03-14T22:15:48;5.33;;;1.50;;
1957;SDS011;979;51.076;13.748;2023-03-14T22:18:23;1.77;;;1.20;;
1957;SDS011;979;51.076;13.748;2023-03-14T22:21:07;2.60;;;1.03;;
1957;SDS011;979;51.076;13.748;2023-03-14T22:23:36;4.70;;;2.57;;
1957;SDS011;979;51.076;13.748;2023-03-14T22:26:14;12.57;;;2.63;;
1957;SDS011;979;51.076;13.748;2023-03-14T22:28:52;12.63;;;1.70;;
1957;SDS011;979;51.076;13.748;2023-03-14T22:31:30;5.90;;;1.80;;
1957;SDS011;979;51.076;13.748;2023-03-14T22:34:02;3.23;;;2.80;;
1957;SDS011;979;51.076;13.748;2023-03-14T22:36:35;1.73;;;1.10;;
1957;SDS011;979;51.076;13.748;2023-03-14T22:39:07;1.97;;;1.70;;
1957;SDS011;979;51.076;13.748;2023-03-14T22:41:40;3.37;;;2.10;;
1957;SDS011;979;51.076;13.748;2023-03-14T22:44:12;2.27;;;1.77;;
1957;SDS011;979;51.076;13.748;2023-03-14T22:46:54;5.53;;;2.73;;
1957;SDS011;979;51.076;13.748;2023-03-14T22:49:26;1.53;;;1.40;;
1957;SDS011;979;51.076;13.748;2023-03-14T22:52:05;1.53;;;1.17;;
1957;SDS011;979;51.076;13.748;2023-03-14T22:54:34;4.60;;;1.47;;
1957;SDS011;979;51.076;13.748;2023-03-14T22:57:06;5.20;;;1.27;;
1957;SDS011;979;51.076;13.748;2023-03-14T22:59:41;1.80;;;1.20;;
1957;SDS011;979;51.076;13.748;2023-03-14T23:02:15;6.20;;;2.60;;
1957;SDS011;979;51.076;13.748;2023-03-14T23:04:47;1.33;;;1.13;;
1957;SDS011;979;51.076;13.748;2023-03-14T23:07:21;2.50;;;1.50;;
1957;SDS011;979;51.076;13.748;2023-03-14T23:09:50;2.50;;;1.50;;
1957;SDS011;979;51.076;13.748;2023-03-14T23:12:18;5.33;;;1.60;;
1957;SDS011;979;51.076;13.748;2023-03-14T23:14:47;1.73;;;1.60;;
1957;SDS011;979;51.076;13.748;2023-03-14T23:17:16;1.30;;;1.20;;